This is the latest recevied weather packets stored in our database for station/object n3uvr. If no packets are shown the sender has not sent any weather packets the latest 10 day(s).
| Time | Temp. | Humidity | Pressure | Rain* | Wind** | Luminosity | Snow |
|---|---|---|---|---|---|---|---|
| 1777828342 | 11.67° C | 39% | 1011.3 hPa | 0 mm | - | 336 W/m² | - |
| 1777827158 | 10.56° C | 42% | 1011.6 hPa | 0 mm | - | 216 W/m² | - |
| 1777826565 | 11.11° C | 41% | 1011.7 hPa | 0 mm | - | 269 W/m² | - |
| 1777825354 | 11.11° C | 40% | 1011.8 hPa | 0 mm | - | 220 W/m² | - |
| 1777824132 | 10° C | 42% | 1012.1 hPa | 0 mm | - | 255 W/m² | - |
| 1777823561 | 10° C | 43% | 1012.1 hPa | 0 mm | - | 236 W/m² | - |
| 1777821754 | 8.33° C | 43% | 1011.8 hPa | 0 mm | - | 137 W/m² | - |
| 1777821147 | 8.89° C | 48% | 1012 hPa | 0 mm | - | 132 W/m² | - |
| 1777820554 | 7.78° C | 50% | 1012.1 hPa | 0 mm | - | 156 W/m² | - |
| 1777819945 | 7.78° C | 52% | 1012.1 hPa | 0 mm | - | 95 W/m² | - |
| 1777818712 | 7.22° C | 57% | 1012.2 hPa | 0 mm | - | 74 W/m² | - |
| 1777818115 | 7.78° C | 59% | 1012.2 hPa | 0 mm | - | 98 W/m² | - |
| 1777817525 | 7.78° C | 62% | 1012.2 hPa | 0 mm | - | 109 W/m² | - |
| 1777815769 | 6.11° C | 67% | 1012.5 hPa | 0 mm | - | 109 W/m² | - |
| 1777814529 | 5.56° C | 71% | 1012.5 hPa | 0 mm | - | 70 W/m² | - |
| 1777813950 | 5° C | 72% | 1012.5 hPa | 0 mm | - | 44 W/m² | - |
| 1777813374 | 5° C | 73% | 1012.5 hPa | 0 mm | - | 109 W/m² | - |
| 1777812768 | 4.44° C | 73% | 1012.5 hPa | 0 mm | - | 49 W/m² | - |
| 1777811531 | 4.44° C | 75% | 1012.4 hPa | 0 mm | - | 74 W/m² | - |
| 1777809149 | 3.89° C | 76% | 1012.1 hPa | 0 mm | - | 46 W/m² | - |
| 1777808569 | 3.89° C | 77% | 1012 hPa | 0 mm | - | 37 W/m² | - |
| 1777807382 | 3.33° C | 78% | 1011.6 hPa | 0 mm | - | 33 W/m² | - |
| 1777806770 | 2.78° C | 78% | 1011.4 hPa | 0 mm | - | 21 W/m² | - |
| 1777805545 | 2.78° C | 78% | 1011.2 hPa | 0 mm | - | 7 W/m² | - |
| 1777803108 | 3.33° C | 77% | 1011.1 hPa | 0 mm | - | 0 W/m² | - |
* Rain latest hour (hover to see other rain measurements)
** Current wind speed in m/s (hover to see current wind gust speed)